sensor_id;sensor_type;location;lat;lon;timestamp;temperature;humidity
8676;DHT22;4375;52.486;13.424;2023-10-09T00:00:12;12.50;99.90
8676;DHT22;4375;52.486;13.424;2023-10-09T00:02:58;12.40;99.90
8676;DHT22;4375;52.486;13.424;2023-10-09T00:05:36;12.10;99.90
8676;DHT22;4375;52.486;13.424;2023-10-09T00:08:15;12.20;99.90
8676;DHT22;4375;52.486;13.424;2023-10-09T00:11:10;12.10;99.90
8676;DHT22;4375;52.486;13.424;2023-10-09T00:13:42;12.20;99.90
8676;DHT22;4375;52.486;13.424;2023-10-09T00:16:22;12.20;99.90
8676;DHT22;4375;52.486;13.424;2023-10-09T00:19:04;12.10;99.90
8676;DHT22;4375;52.486;13.424;2023-10-09T00:21:47;12.20;99.90
8676;DHT22;4375;52.486;13.424;2023-10-09T00:24:13;12.10;99.90
8676;DHT22;4375;52.486;13.424;2023-10-09T00:26:40;12.10;99.90
8676;DHT22;4375;52.486;13.424;2023-10-09T00:29:12;12.10;99.90
8676;DHT22;4375;52.486;13.424;2023-10-09T00:31:42;12.10;99.90
8676;DHT22;4375;52.486;13.424;2023-10-09T00:34:16;12.00;99.90
8676;DHT22;4375;52.486;13.424;2023-10-09T00:36:45;12.00;99.90
8676;DHT22;4375;52.486;13.424;2023-10-09T00:39:21;11.90;99.90
8676;DHT22;4375;52.486;13.424;2023-10-09T00:42:02;11.90;99.90
8676;DHT22;4375;52.486;13.424;2023-10-09T00:44:29;11.90;99.90
8676;DHT22;4375;52.486;13.424;2023-10-09T00:47:08;11.80;99.90
8676;DHT22;4375;52.486;13.424;2023-10-09T00:50:06;11.80;99.90
8676;DHT22;4375;52.486;13.424;2023-10-09T00:52:44;11.80;99.90
8676;DHT22;4375;52.486;13.424;2023-10-09T00:55:20;11.70;99.90
8676;DHT22;4375;52.486;13.424;2023-10-09T00:58:14;11.60;99.90
8676;DHT22;4375;52.486;13.424;2023-10-09T01:00:41;11.50;99.90
8676;DHT22;4375;52.486;13.424;2023-10-09T01:03:10;11.60;99.90
8676;DHT22;4375;52.486;13.424;2023-10-09T01:05:49;11.50;99.90
8676;DHT22;4375;52.486;13.424;2023-10-09T01:08:19;11.50;99.90
8676;DHT22;4375;52.486;13.424;2023-10-09T01:10:59;11.50;99.90
8676;DHT22;4375;52.486;13.424;2023-10-09T01:13:47;11.50;99.90
8676;DHT22;4375;52.486;13.424;2023-10-09T01:16:17;11.60;99.90
8676;DHT22;4375;52.486;13.424;2023-10-09T01:18:47;11.60;99.90
8676;DHT22;4375;52.486;13.424;2023-10-09T01:21:19;11.50;99.90
8676;DHT22;4375;52.486;13.424;2023-10-09T01:23:53;11.40;99.90
8676;DHT22;4375;52.486;13.424;2023-10-09T01:26:28;11.50;99.90
8676;DHT22;4375;52.486;13.424;2023-10-09T01:28:58;11.40;99.90
8676;DHT22;4375;52.486;13.424;2023-10-09T01:31:26;11.40;99.90
8676;DHT22;4375;52.486;13.424;2023-10-09T01:33:55;11.30;99.90
8676;DHT22;4375;52.486;13.424;2023-10-09T01:36:25;11.30;99.90
8676;DHT22;4375;52.486;13.424;2023-10-09T01:39:02;11.30;99.90
8676;DHT22;4375;52.486;13.424;2023-10-09T01:41:36;11.20;99.90
8676;DHT22;4375;52.486;13.424;2023-10-09T01:44:11;11.20;99.90
8676;DHT22;4375;52.486;13.424;2023-10-09T01:46:37;11.20;99.90
8676;DHT22;4375;52.486;13.424;2023-10-09T01:49:03;11.20;99.90
8676;DHT22;4375;52.486;13.424;2023-10-09T01:51:34;11.10;99.90
8676;DHT22;4375;52.486;13.424;2023-10-09T01:54:02;11.00;99.90
8676;DHT22;4375;52.486;13.424;2023-10-09T01:56:28;10.90;99.90
8676;DHT22;4375;52.486;13.424;2023-10-09T01:58:54;11.00;99.90
8676;DHT22;4375;52.486;13.424;2023-10-09T02:01:27;11.00;99.90
8676;DHT22;4375;52.486;13.424;2023-10-09T02:03:53;10.90;99.90
8676;DHT22;4375;52.486;13.424;2023-10-09T02:06:19;10.90;99.90
8676;DHT22;4375;52.486;13.424;2023-10-09T02:08:57;11.00;99.90
8676;DHT22;4375;52.486;13.424;2023-10-09T02:11:24;10.90;99.90
8676;DHT22;4375;52.486;13.424;2023-10-09T02:14:03;10.90;99.90
8676;DHT22;4375;52.486;13.424;2023-10-09T02:16:31;10.80;99.90
8676;DHT22;4375;52.486;13.424;2023-10-09T02:19:07;10.90;99.90
8676;DHT22;4375;52.486;13.424;2023-10-09T02:21:54;10.90;99.90
8676;DHT22;4375;52.486;13.424;2023-10-09T02:24:23;10.90;99.90
8676;DHT22;4375;52.486;13.424;2023-10-09T03:38:03;11.00;99.90
8676;DHT22;4375;52.486;13.424;2023-10-09T03:41:02;11.10;99.90
8676;DHT22;4375;52.486;13.424;2023-10-09T03:44:17;11.10;99.90
8676;DHT22;4375;52.486;13.424;2023-10-09T03:50:34;10.90;99.90
8676;DHT22;4375;52.486;13.424;2023-10-09T03:57:17;10.90;99.90
8676;DHT22;4375;52.486;13.424;2023-10-09T04:00:41;10.80;99.90
8676;DHT22;4375;52.486;13.424;2023-10-09T04:03:24;10.80;99.90
8676;DHT22;4375;52.486;13.424;2023-10-09T04:06:15;10.90;99.90
8676;DHT22;4375;52.486;13.424;2023-10-09T04:09:45;10.90;99.90
8676;DHT22;4375;52.486;13.424;2023-10-09T04:12:38;10.90;99.90
8676;DHT22;4375;52.486;13.424;2023-10-09T04:16:26;10.90;99.90
8676;DHT22;4375;52.486;13.424;2023-10-09T04:19:26;10.90;99.90
8676;DHT22;4375;52.486;13.424;2023-10-09T04:21:59;10.70;99.90
8676;DHT22;4375;52.486;13.424;2023-10-09T04:24:52;10.50;99.90
8676;DHT22;4375;52.486;13.424;2023-10-09T04:27:25;10.40;99.90
8676;DHT22;4375;52.486;13.424;2023-10-09T04:31:12;10.50;99.90
8676;DHT22;4375;52.486;13.424;2023-10-09T04:34:25;10.60;99.90
8676;DHT22;4375;52.486;13.424;2023-10-09T04:37:25;10.70;99.90
8676;DHT22;4375;52.486;13.424;2023-10-09T04:44:16;10.80;99.90
8676;DHT22;4375;52.486;13.424;2023-10-09T04:51:14;10.80;99.90
8676;DHT22;4375;52.486;13.424;2023-10-09T04:54:41;10.80;99.90
8676;DHT22;4375;52.486;13.424;2023-10-09T04:57:34;10.80;99.90
8676;DHT22;4375;52.486;13.424;2023-10-09T05:01:03;10.80;99.90
8676;DHT22;4375;52.486;13.424;2023-10-09T05:08:09;10.90;99.90
8676;DHT22;4375;52.486;13.424;2023-10-09T05:11:29;10.80;99.90
8676;DHT22;4375;52.486;13.424;2023-10-09T05:21:48;10.80;99.90
8676;DHT22;4375;52.486;13.424;2023-10-09T05:28:42;10.90;99.90
8676;DHT22;4375;52.486;13.424;2023-10-09T05:32:30;10.80;99.90
8676;DHT22;4375;52.486;13.424;2023-10-09T05:35:27;10.80;99.90
8676;DHT22;4375;52.486;13.424;2023-10-09T05:42:10;10.80;99.90
8676;DHT22;4375;52.486;13.424;2023-10-09T05:45:32;10.90;99.90
8676;DHT22;4375;52.486;13.424;2023-10-09T05:48:58;10.80;99.90
8676;DHT22;4375;52.486;13.424;2023-10-09T05:52:07;10.90;99.90
8676;DHT22;4375;52.486;13.424;2023-10-09T05:55:19;10.70;99.90
8676;DHT22;4375;52.486;13.424;2023-10-09T06:02:06;10.80;99.90
8676;DHT22;4375;52.486;13.424;2023-10-09T06:04:53;10.80;99.90
8676;DHT22;4375;52.486;13.424;2023-10-09T06:08:00;10.80;99.90
8676;DHT22;4375;52.486;13.424;2023-10-09T06:10:44;10.70;99.90
8676;DHT22;4375;52.486;13.424;2023-10-09T06:14:07;10.70;99.90
8676;DHT22;4375;52.486;13.424;2023-10-09T06:16:58;10.70;99.90
8676;DHT22;4375;52.486;13.424;2023-10-09T06:20:38;10.70;99.90
8676;DHT22;4375;52.486;13.424;2023-10-09T06:23:50;10.60;99.90
8676;DHT22;4375;52.486;13.424;2023-10-09T06:37:20;10.70;99.90
8676;DHT22;4375;52.486;13.424;2023-10-09T06:39:56;10.70;99.90
8676;DHT22;4375;52.486;13.424;2023-10-09T06:42:26;10.60;99.90
8676;DHT22;4375;52.486;13.424;2023-10-09T06:45:12;10.70;99.90
8676;DHT22;4375;52.486;13.424;2023-10-09T06:47:48;10.80;99.90
8676;DHT22;4375;52.486;13.424;2023-10-09T06:50:38;10.90;99.90
8676;DHT22;4375;52.486;13.424;2023-10-09T06:53:37;11.00;99.90
8676;DHT22;4375;52.486;13.424;2023-10-09T06:59:49;11.20;99.90
8676;DHT22;4375;52.486;13.424;2023-10-09T07:02:34;11.20;99.90
8676;DHT22;4375;52.486;13.424;2023-10-09T07:05:11;11.20;99.90
8676;DHT22;4375;52.486;13.424;2023-10-09T07:07:43;11.20;99.90
8676;DHT22;4375;52.486;13.424;2023-10-09T07:10:17;11.30;99.90
8676;DHT22;4375;52.486;13.424;2023-10-09T07:12:55;11.30;99.90
8676;DHT22;4375;52.486;13.424;2023-10-09T07:15:23;11.40;99.90
8676;DHT22;4375;52.486;13.424;2023-10-09T07:18:08;11.30;99.90
8676;DHT22;4375;52.486;13.424;2023-10-09T07:20:48;11.40;99.90
8676;DHT22;4375;52.486;13.424;2023-10-09T07:23:27;11.50;99.90
8676;DHT22;4375;52.486;13.424;2023-10-09T07:26:05;11.40;99.90
8676;DHT22;4375;52.486;13.424;2023-10-09T07:28:44;11.60;99.90
8676;DHT22;4375;52.486;13.424;2023-10-09T07:31:17;11.50;99.90
8676;DHT22;4375;52.486;13.424;2023-10-09T07:33:51;11.40;99.90
8676;DHT22;4375;52.486;13.424;2023-10-09T07:36:22;11.50;99.90
8676;DHT22;4375;52.486;13.424;2023-10-09T07:39:02;11.70;99.90
8676;DHT22;4375;52.486;13.424;2023-10-09T07:41:32;11.70;99.90
8676;DHT22;4375;52.486;13.424;2023-10-09T07:43:57;11.80;99.90
8676;DHT22;4375;52.486;13.424;2023-10-09T07:46:23;11.80;99.90
8676;DHT22;4375;52.486;13.424;2023-10-09T07:49:00;11.70;99.90
8676;DHT22;4375;52.486;13.424;2023-10-09T07:51:38;11.70;99.90
8676;DHT22;4375;52.486;13.424;2023-10-09T07:54:04;11.70;99.90
8676;DHT22;4375;52.486;13.424;2023-10-09T07:56:37;11.70;99.90
8676;DHT22;4375;52.486;13.424;2023-10-09T07:59:07;11.70;99.90
8676;DHT22;4375;52.486;13.424;2023-10-09T08:01:44;11.70;99.90
8676;DHT22;4375;52.486;13.424;2023-10-09T08:04:24;11.60;99.90
8676;DHT22;4375;52.486;13.424;2023-10-09T08:07:11;11.50;99.90
8676;DHT22;4375;52.486;13.424;2023-10-09T08:10:01;11.50;99.90
8676;DHT22;4375;52.486;13.424;2023-10-09T08:12:45;11.60;99.90
8676;DHT22;4375;52.486;13.424;2023-10-09T08:15:24;11.60;99.90
8676;DHT22;4375;52.486;13.424;2023-10-09T08:18:09;11.50;99.90
8676;DHT22;4375;52.486;13.424;2023-10-09T08:20:43;11.60;99.90
8676;DHT22;4375;52.486;13.424;2023-10-09T08:23:29;11.60;99.90
8676;DHT22;4375;52.486;13.424;2023-10-09T08:26:14;11.80;99.90
8676;DHT22;4375;52.486;13.424;2023-10-09T08:28:43;11.90;99.90
8676;DHT22;4375;52.486;13.424;2023-10-09T08:31:13;11.80;99.90
8676;DHT22;4375;52.486;13.424;2023-10-09T08:34:00;11.90;99.90
8676;DHT22;4375;52.486;13.424;2023-10-09T08:36:27;11.90;99.90
8676;DHT22;4375;52.486;13.424;2023-10-09T08:38:57;11.90;99.90
8676;DHT22;4375;52.486;13.424;2023-10-09T08:41:23;11.90;99.90
8676;DHT22;4375;52.486;13.424;2023-10-09T08:43:56;12.00;99.90
8676;DHT22;4375;52.486;13.424;2023-10-09T08:46:27;11.80;99.90
8676;DHT22;4375;52.486;13.424;2023-10-09T08:48:59;11.90;99.90
8676;DHT22;4375;52.486;13.424;2023-10-09T08:51:26;11.90;99.90
8676;DHT22;4375;52.486;13.424;2023-10-09T08:53:52;11.80;99.90
8676;DHT22;4375;52.486;13.424;2023-10-09T08:56:20;11.90;99.90
8676;DHT22;4375;52.486;13.424;2023-10-09T08:58:58;11.90;99.90
8676;DHT22;4375;52.486;13.424;2023-10-09T09:01:27;12.00;99.90
8676;DHT22;4375;52.486;13.424;2023-10-09T09:03:57;11.90;99.90
8676;DHT22;4375;52.486;13.424;2023-10-09T09:06:25;11.90;99.90
8676;DHT22;4375;52.486;13.424;2023-10-09T09:08:51;11.90;99.90
8676;DHT22;4375;52.486;13.424;2023-10-09T09:11:25;11.80;99.90
8676;DHT22;4375;52.486;13.424;2023-10-09T09:14:03;11.90;99.90
8676;DHT22;4375;52.486;13.424;2023-10-09T09:16:41;12.00;99.90
8676;DHT22;4375;52.486;13.424;2023-10-09T09:19:10;11.90;99.90
8676;DHT22;4375;52.486;13.424;2023-10-09T09:21:41;11.90;99.90
8676;DHT22;4375;52.486;13.424;2023-10-09T09:24:09;11.90;99.90
8676;DHT22;4375;52.486;13.424;2023-10-09T09:26:43;11.90;99.90
8676;DHT22;4375;52.486;13.424;2023-10-09T09:29:13;11.80;99.90
8676;DHT22;4375;52.486;13.424;2023-10-09T09:31:56;11.90;99.90
8676;DHT22;4375;52.486;13.424;2023-10-09T09:34:48;12.00;99.90
8676;DHT22;4375;52.486;13.424;2023-10-09T09:37:25;11.70;99.90
8676;DHT22;4375;52.486;13.424;2023-10-09T09:39:58;11.80;99.90
8676;DHT22;4375;52.486;13.424;2023-10-09T09:42:29;12.00;99.90
8676;DHT22;4375;52.486;13.424;2023-10-09T09:45:00;12.10;99.90
8676;DHT22;4375;52.486;13.424;2023-10-09T09:47:27;12.20;99.90
8676;DHT22;4375;52.486;13.424;2023-10-09T09:49:54;12.20;99.90
8676;DHT22;4375;52.486;13.424;2023-10-09T09:52:28;12.10;99.90
8676;DHT22;4375;52.486;13.424;2023-10-09T09:54:55;12.20;99.90
8676;DHT22;4375;52.486;13.424;2023-10-09T09:57:23;12.20;99.90
8676;DHT22;4375;52.486;13.424;2023-10-09T09:59:52;12.10;99.90
8676;DHT22;4375;52.486;13.424;2023-10-09T10:02:29;12.30;99.90
8676;DHT22;4375;52.486;13.424;2023-10-09T10:05:02;12.20;99.90
8676;DHT22;4375;52.486;13.424;2023-10-09T10:07:32;12.20;99.90
8676;DHT22;4375;52.486;13.424;2023-10-09T10:10:39;12.10;99.90
8676;DHT22;4375;52.486;13.424;2023-10-09T10:13:55;12.00;99.90
8676;DHT22;4375;52.486;13.424;2023-10-09T10:16:26;11.70;99.90
8676;DHT22;4375;52.486;13.424;2023-10-09T10:19:00;12.00;99.90
8676;DHT22;4375;52.486;13.424;2023-10-09T10:21:33;12.00;99.90
8676;DHT22;4375;52.486;13.424;2023-10-09T10:24:40;12.00;99.90
8676;DHT22;4375;52.486;13.424;2023-10-09T10:27:21;12.10;99.90
8676;DHT22;4375;52.486;13.424;2023-10-09T10:35:18;12.30;99.90
8676;DHT22;4375;52.486;13.424;2023-10-09T10:37:46;12.30;99.90
8676;DHT22;4375;52.486;13.424;2023-10-09T10:40:28;12.20;99.90
8676;DHT22;4375;52.486;13.424;2023-10-09T10:43:06;12.30;99.90
8676;DHT22;4375;52.486;13.424;2023-10-09T10:46:04;12.30;99.90
8676;DHT22;4375;52.486;13.424;2023-10-09T10:48:36;12.30;99.90
8676;DHT22;4375;52.486;13.424;2023-10-09T10:51:07;12.30;99.90
8676;DHT22;4375;52.486;13.424;2023-10-09T10:53:37;12.50;99.90
8676;DHT22;4375;52.486;13.424;2023-10-09T10:56:13;12.50;99.90
8676;DHT22;4375;52.486;13.424;2023-10-09T10:58:39;12.50;99.90
8676;DHT22;4375;52.486;13.424;2023-10-09T11:01:19;12.60;99.90
8676;DHT22;4375;52.486;13.424;2023-10-09T11:03:48;12.90;99.90
8676;DHT22;4375;52.486;13.424;2023-10-09T11:06:31;12.60;99.90
8676;DHT22;4375;52.486;13.424;2023-10-09T11:09:07;12.50;99.90
8676;DHT22;4375;52.486;13.424;2023-10-09T11:11:50;12.90;99.90
8676;DHT22;4375;52.486;13.424;2023-10-09T11:14:20;12.80;99.90
8676;DHT22;4375;52.486;13.424;2023-10-09T11:16:52;12.90;99.90
8676;DHT22;4375;52.486;13.424;2023-10-09T11:19:23;13.00;99.90
8676;DHT22;4375;52.486;13.424;2023-10-09T11:21:59;13.20;99.90
8676;DHT22;4375;52.486;13.424;2023-10-09T11:24:32;13.20;99.90
8676;DHT22;4375;52.486;13.424;2023-10-09T11:27:05;12.90;99.90
8676;DHT22;4375;52.486;13.424;2023-10-09T11:29:35;12.80;99.90
8676;DHT22;4375;52.486;13.424;2023-10-09T11:32:18;12.80;99.90
8676;DHT22;4375;52.486;13.424;2023-10-09T11:34:45;12.80;99.90
8676;DHT22;4375;52.486;13.424;2023-10-09T11:37:22;12.80;99.90
8676;DHT22;4375;52.486;13.424;2023-10-09T11:39:57;12.70;99.90
8676;DHT22;4375;52.486;13.424;2023-10-09T11:42:24;12.70;99.90
8676;DHT22;4375;52.486;13.424;2023-10-09T11:45:23;12.50;99.90
8676;DHT22;4375;52.486;13.424;2023-10-09T11:47:52;12.50;99.90
8676;DHT22;4375;52.486;13.424;2023-10-09T11:50:43;12.70;99.90
8676;DHT22;4375;52.486;13.424;2023-10-09T11:53:16;12.80;99.90
8676;DHT22;4375;52.486;13.424;2023-10-09T11:55:48;12.90;99.90
8676;DHT22;4375;52.486;13.424;2023-10-09T11:58:17;13.10;99.90
8676;DHT22;4375;52.486;13.424;2023-10-09T12:00:53;13.00;99.90
8676;DHT22;4375;52.486;13.424;2023-10-09T12:03:25;13.00;99.90
8676;DHT22;4375;52.486;13.424;2023-10-09T12:05:55;13.20;99.90
8676;DHT22;4375;52.486;13.424;2023-10-09T12:08:22;13.30;99.90
8676;DHT22;4375;52.486;13.424;2023-10-09T12:10:54;13.30;99.90
8676;DHT22;4375;52.486;13.424;2023-10-09T12:13:24;13.30;99.90
8676;DHT22;4375;52.486;13.424;2023-10-09T12:15:51;13.20;99.90
8676;DHT22;4375;52.486;13.424;2023-10-09T12:18:19;13.20;99.90
8676;DHT22;4375;52.486;13.424;2023-10-09T12:20:45;13.30;99.90
8676;DHT22;4375;52.486;13.424;2023-10-09T12:23:17;13.30;99.90
8676;DHT22;4375;52.486;13.424;2023-10-09T12:25:43;13.00;99.90
8676;DHT22;4375;52.486;13.424;2023-10-09T12:28:13;13.00;99.90
8676;DHT22;4375;52.486;13.424;2023-10-09T12:30:40;12.90;99.90
8676;DHT22;4375;52.486;13.424;2023-10-09T12:33:06;12.70;99.90
8676;DHT22;4375;52.486;13.424;2023-10-09T12:35:36;12.70;99.90
8676;DHT22;4375;52.486;13.424;2023-10-09T12:38:02;12.80;99.90
8676;DHT22;4375;52.486;13.424;2023-10-09T12:40:28;12.80;99.90
8676;DHT22;4375;52.486;13.424;2023-10-09T12:42:57;12.90;99.90
8676;DHT22;4375;52.486;13.424;2023-10-09T12:45:26;12.80;99.90
8676;DHT22;4375;52.486;13.424;2023-10-09T12:47:54;12.90;99.90
8676;DHT22;4375;52.486;13.424;2023-10-09T12:50:27;12.90;99.90
8676;DHT22;4375;52.486;13.424;2023-10-09T12:53:00;12.80;99.90
8676;DHT22;4375;52.486;13.424;2023-10-09T12:55:35;12.80;99.90
8676;DHT22;4375;52.486;13.424;2023-10-09T12:58:03;12.70;99.90
8676;DHT22;4375;52.486;13.424;2023-10-09T13:00:36;12.50;99.90
8676;DHT22;4375;52.486;13.424;2023-10-09T13:03:10;12.50;99.90
8676;DHT22;4375;52.486;13.424;2023-10-09T13:05:47;12.40;99.90
8676;DHT22;4375;52.486;13.424;2023-10-09T13:08:24;12.20;99.90
8676;DHT22;4375;52.486;13.424;2023-10-09T13:10:57;12.20;99.90
8676;DHT22;4375;52.486;13.424;2023-10-09T13:13:29;12.20;99.90
8676;DHT22;4375;52.486;13.424;2023-10-09T13:16:18;12.30;99.90
8676;DHT22;4375;52.486;13.424;2023-10-09T13:18:50;12.30;99.90
8676;DHT22;4375;52.486;13.424;2023-10-09T13:21:21;12.30;99.90
8676;DHT22;4375;52.486;13.424;2023-10-09T13:23:48;12.30;99.90
8676;DHT22;4375;52.486;13.424;2023-10-09T13:26:19;12.50;99.90
8676;DHT22;4375;52.486;13.424;2023-10-09T13:29:01;12.50;99.90
8676;DHT22;4375;52.486;13.424;2023-10-09T13:31:27;12.50;99.90
8676;DHT22;4375;52.486;13.424;2023-10-09T13:33:57;12.50;99.90
8676;DHT22;4375;52.486;13.424;2023-10-09T13:36:25;12.60;99.90
8676;DHT22;4375;52.486;13.424;2023-10-09T13:39:05;12.60;99.90
8676;DHT22;4375;52.486;13.424;2023-10-09T13:41:46;12.60;99.90
8676;DHT22;4375;52.486;13.424;2023-10-09T13:44:12;12.50;99.90
8676;DHT22;4375;52.486;13.424;2023-10-09T13:46:38;12.50;99.90
8676;DHT22;4375;52.486;13.424;2023-10-09T13:49:10;12.40;99.90
8676;DHT22;4375;52.486;13.424;2023-10-09T13:51:40;12.40;99.90
8676;DHT22;4375;52.486;13.424;2023-10-09T13:54:12;12.30;99.90
8676;DHT22;4375;52.486;13.424;2023-10-09T13:56:49;12.40;99.90
8676;DHT22;4375;52.486;13.424;2023-10-09T13:59:21;12.40;99.90
8676;DHT22;4375;52.486;13.424;2023-10-09T14:01:50;12.40;99.90
8676;DHT22;4375;52.486;13.424;2023-10-09T14:04:17;12.40;99.90
8676;DHT22;4375;52.486;13.424;2023-10-09T14:06:44;12.40;99.90
8676;DHT22;4375;52.486;13.424;2023-10-09T14:09:10;12.40;99.90
8676;DHT22;4375;52.486;13.424;2023-10-09T14:11:37;12.50;99.90
8676;DHT22;4375;52.486;13.424;2023-10-09T14:14:09;12.50;99.90
8676;DHT22;4375;52.486;13.424;2023-10-09T14:16:37;12.50;99.90
8676;DHT22;4375;52.486;13.424;2023-10-09T14:19:03;12.50;99.90
8676;DHT22;4375;52.486;13.424;2023-10-09T14:21:33;12.60;99.90
8676;DHT22;4375;52.486;13.424;2023-10-09T14:24:12;12.70;99.90
8676;DHT22;4375;52.486;13.424;2023-10-09T14:26:41;12.70;99.90
8676;DHT22;4375;52.486;13.424;2023-10-09T14:29:10;12.70;99.90
8676;DHT22;4375;52.486;13.424;2023-10-09T14:31:42;12.60;99.90
8676;DHT22;4375;52.486;13.424;2023-10-09T14:34:10;12.60;99.90
8676;DHT22;4375;52.486;13.424;2023-10-09T14:36:36;12.70;99.90
8676;DHT22;4375;52.486;13.424;2023-10-09T14:39:09;12.80;99.90
8676;DHT22;4375;52.486;13.424;2023-10-09T14:41:38;12.80;99.90
8676;DHT22;4375;52.486;13.424;2023-10-09T14:44:05;12.80;99.90
8676;DHT22;4375;52.486;13.424;2023-10-09T14:46:31;12.80;99.90
8676;DHT22;4375;52.486;13.424;2023-10-09T14:48:57;12.80;99.90
8676;DHT22;4375;52.486;13.424;2023-10-09T14:51:23;12.70;99.90
8676;DHT22;4375;52.486;13.424;2023-10-09T14:53:54;12.50;99.90
8676;DHT22;4375;52.486;13.424;2023-10-09T14:56:25;12.60;99.90
8676;DHT22;4375;52.486;13.424;2023-10-09T14:58:58;12.60;99.90
8676;DHT22;4375;52.486;13.424;2023-10-09T15:01:28;12.60;99.90
8676;DHT22;4375;52.486;13.424;2023-10-09T15:03:57;12.60;99.90
8676;DHT22;4375;52.486;13.424;2023-10-09T15:06:25;12.50;99.90
8676;DHT22;4375;52.486;13.424;2023-10-09T15:08:59;12.50;99.90
8676;DHT22;4375;52.486;13.424;2023-10-09T15:11:35;12.60;99.90
8676;DHT22;4375;52.486;13.424;2023-10-09T15:14:02;12.50;99.90
8676;DHT22;4375;52.486;13.424;2023-10-09T15:16:31;12.50;99.90
8676;DHT22;4375;52.486;13.424;2023-10-09T15:18:57;12.60;99.90
8676;DHT22;4375;52.486;13.424;2023-10-09T15:21:24;12.60;99.90
8676;DHT22;4375;52.486;13.424;2023-10-09T15:23:55;12.60;99.90
8676;DHT22;4375;52.486;13.424;2023-10-09T15:26:21;12.60;99.90
8676;DHT22;4375;52.486;13.424;2023-10-09T15:28:49;12.50;99.90
8676;DHT22;4375;52.486;13.424;2023-10-09T15:31:18;12.50;99.90
8676;DHT22;4375;52.486;13.424;2023-10-09T15:33:46;12.40;99.90
8676;DHT22;4375;52.486;13.424;2023-10-09T15:36:17;12.30;99.90
8676;DHT22;4375;52.486;13.424;2023-10-09T15:38:46;12.40;99.90
8676;DHT22;4375;52.486;13.424;2023-10-09T15:41:16;12.50;99.90
8676;DHT22;4375;52.486;13.424;2023-10-09T15:43:42;12.60;99.90
8676;DHT22;4375;52.486;13.424;2023-10-09T15:46:12;12.40;99.90
8676;DHT22;4375;52.486;13.424;2023-10-09T15:48:42;12.40;99.90
8676;DHT22;4375;52.486;13.424;2023-10-09T15:51:12;12.50;99.90
8676;DHT22;4375;52.486;13.424;2023-10-09T15:53:42;12.50;99.90
8676;DHT22;4375;52.486;13.424;2023-10-09T15:56:12;12.40;99.90
8676;DHT22;4375;52.486;13.424;2023-10-09T15:58:41;12.40;99.90
8676;DHT22;4375;52.486;13.424;2023-10-09T16:01:11;12.30;99.90
8676;DHT22;4375;52.486;13.424;2023-10-09T16:03:41;12.40;99.90
8676;DHT22;4375;52.486;13.424;2023-10-09T16:06:07;12.40;99.90
8676;DHT22;4375;52.486;13.424;2023-10-09T16:08:40;12.50;99.90
8676;DHT22;4375;52.486;13.424;2023-10-09T16:11:07;12.40;99.90
8676;DHT22;4375;52.486;13.424;2023-10-09T16:13:33;12.30;99.90
8676;DHT22;4375;52.486;13.424;2023-10-09T16:15:59;12.40;99.90
8676;DHT22;4375;52.486;13.424;2023-10-09T16:18:27;12.30;99.90
8676;DHT22;4375;52.486;13.424;2023-10-09T16:20:55;12.20;99.90
8676;DHT22;4375;52.486;13.424;2023-10-09T16:23:21;12.30;99.90
8676;DHT22;4375;52.486;13.424;2023-10-09T16:25:47;12.40;99.90
8676;DHT22;4375;52.486;13.424;2023-10-09T16:28:14;12.40;99.90
8676;DHT22;4375;52.486;13.424;2023-10-09T16:30:41;12.40;99.90
8676;DHT22;4375;52.486;13.424;2023-10-09T16:33:08;12.40;99.90
8676;DHT22;4375;52.486;13.424;2023-10-09T16:35:34;12.30;99.90
8676;DHT22;4375;52.486;13.424;2023-10-09T16:38:03;12.20;99.90
8676;DHT22;4375;52.486;13.424;2023-10-09T16:40:33;12.20;99.90
8676;DHT22;4375;52.486;13.424;2023-10-09T16:43:02;12.20;99.90
8676;DHT22;4375;52.486;13.424;2023-10-09T16:45:28;12.20;99.90
8676;DHT22;4375;52.486;13.424;2023-10-09T16:47:54;12.20;99.90
8676;DHT22;4375;52.486;13.424;2023-10-09T16:50:30;12.10;99.90
8676;DHT22;4375;52.486;13.424;2023-10-09T16:53:00;12.10;99.90
8676;DHT22;4375;52.486;13.424;2023-10-09T16:55:25;12.10;99.90
8676;DHT22;4375;52.486;13.424;2023-10-09T16:57:52;12.10;99.90
8676;DHT22;4375;52.486;13.424;2023-10-09T17:00:18;12.10;99.90
8676;DHT22;4375;52.486;13.424;2023-10-09T17:02:57;12.10;99.90
8676;DHT22;4375;52.486;13.424;2023-10-09T17:05:23;12.10;99.90
8676;DHT22;4375;52.486;13.424;2023-10-09T17:07:54;12.00;99.90
8676;DHT22;4375;52.486;13.424;2023-10-09T17:10:21;12.00;99.90
8676;DHT22;4375;52.486;13.424;2023-10-09T17:12:51;12.00;99.90
8676;DHT22;4375;52.486;13.424;2023-10-09T17:15:17;11.90;99.90
8676;DHT22;4375;52.486;13.424;2023-10-09T17:17:47;11.90;99.90
8676;DHT22;4375;52.486;13.424;2023-10-09T17:20:17;11.80;99.90
8676;DHT22;4375;52.486;13.424;2023-10-09T17:22:43;11.80;99.90
8676;DHT22;4375;52.486;13.424;2023-10-09T17:25:11;11.80;99.90
8676;DHT22;4375;52.486;13.424;2023-10-09T17:27:40;11.90;99.90
8676;DHT22;4375;52.486;13.424;2023-10-09T17:30:08;11.90;99.90
8676;DHT22;4375;52.486;13.424;2023-10-09T17:32:34;11.80;99.90
8676;DHT22;4375;52.486;13.424;2023-10-09T17:35:01;11.70;99.90
8676;DHT22;4375;52.486;13.424;2023-10-09T17:37:28;11.60;99.90
8676;DHT22;4375;52.486;13.424;2023-10-09T17:39:53;11.70;99.90
8676;DHT22;4375;52.486;13.424;2023-10-09T17:42:19;11.70;99.90
8676;DHT22;4375;52.486;13.424;2023-10-09T17:44:45;11.80;99.90
8676;DHT22;4375;52.486;13.424;2023-10-09T17:47:12;11.80;99.90
8676;DHT22;4375;52.486;13.424;2023-10-09T17:49:38;11.80;99.90
8676;DHT22;4375;52.486;13.424;2023-10-09T17:52:04;11.90;99.90
8676;DHT22;4375;52.486;13.424;2023-10-09T17:54:31;11.80;99.90
8676;DHT22;4375;52.486;13.424;2023-10-09T17:56:58;11.90;99.90
8676;DHT22;4375;52.486;13.424;2023-10-09T17:59:25;11.90;99.90
8676;DHT22;4375;52.486;13.424;2023-10-09T18:01:53;11.90;99.90
8676;DHT22;4375;52.486;13.424;2023-10-09T18:04:18;11.90;99.90
8676;DHT22;4375;52.486;13.424;2023-10-09T18:06:44;11.90;99.90
8676;DHT22;4375;52.486;13.424;2023-10-09T18:09:10;11.90;99.90
8676;DHT22;4375;52.486;13.424;2023-10-09T18:11:43;11.70;99.90
8676;DHT22;4375;52.486;13.424;2023-10-09T18:14:13;11.60;99.90
8676;DHT22;4375;52.486;13.424;2023-10-09T18:16:42;11.70;99.90
8676;DHT22;4375;52.486;13.424;2023-10-09T18:19:08;11.50;99.90
8676;DHT22;4375;52.486;13.424;2023-10-09T18:21:34;11.50;99.90
8676;DHT22;4375;52.486;13.424;2023-10-09T18:24:08;11.50;99.90
8676;DHT22;4375;52.486;13.424;2023-10-09T18:26:40;11.60;99.90
8676;DHT22;4375;52.486;13.424;2023-10-09T18:29:06;11.70;99.90
8676;DHT22;4375;52.486;13.424;2023-10-09T18:31:31;11.70;99.90
8676;DHT22;4375;52.486;13.424;2023-10-09T18:33:57;11.70;99.90
8676;DHT22;4375;52.486;13.424;2023-10-09T18:36:23;11.70;99.90
8676;DHT22;4375;52.486;13.424;2023-10-09T18:38:54;11.70;99.90
8676;DHT22;4375;52.486;13.424;2023-10-09T18:41:19;11.70;99.90
8676;DHT22;4375;52.486;13.424;2023-10-09T18:43:47;11.70;99.90
8676;DHT22;4375;52.486;13.424;2023-10-09T18:46:14;11.60;99.90
8676;DHT22;4375;52.486;13.424;2023-10-09T18:48:40;11.60;99.90